Time;durP1;ratioP1;P1;durP2;ratioP2;P2;SDS_P1;SDS_P2;PMS_P1;PMS_P2;Temp;Humidity;BMP_temperature;BMP_pressure;BME280_temperature;BME280_humidity;BME280_pressure;Samples;Min_cycle;Max_cycle;Signal;HPM_P1;HPM_P2
2023/06/10 00:00:32;;;;;;;11.63;6.03;;;18.00;98.00;;;;;;5033952;28;20499;-67
2023/06/10 00:03:00;;;;;;;10.00;5.93;;;18.00;98.00;;;;;;5034054;28;20539;-68
2023/06/10 00:05:29;;;;;;;12.47;6.17;;;18.10;98.00;;;;;;5033926;28;20545;-67
2023/06/10 00:07:57;;;;;;;9.27;5.43;;;18.10;98.00;;;;;;5051405;28;20964;-67
2023/06/10 00:10:24;;;;;;;11.53;5.83;;;17.90;98.00;;;;;;5051594;28;20457;-67
2023/06/10 00:12:51;;;;;;;10.53;5.93;;;17.90;98.00;;;;;;5051049;28;20549;-67
2023/06/10 00:15:20;;;;;;;9.70;5.30;;;17.80;98.00;;;;;;5051184;28;20462;-68
2023/06/10 00:17:48;;;;;;;11.10;5.70;;;17.60;98.00;;;;;;5051108;28;20465;-67
2023/06/10 00:20:18;;;;;;;12.70;5.97;;;17.50;98.00;;;;;;5051252;28;20960;-68
2023/06/10 00:22:46;;;;;;;12.53;6.33;;;17.50;98.00;;;;;;5051496;28;20461;-67
2023/06/10 00:25:13;;;;;;;10.50;5.40;;;17.60;98.00;;;;;;5051115;28;20457;-67
2023/06/10 00:27:40;;;;;;;10.50;5.73;;;17.70;98.00;;;;;;5051174;28;20489;-67
2023/06/10 00:30:09;;;;;;;10.67;5.67;;;17.60;98.00;;;;;;5051006;28;20477;-68
2023/06/10 00:32:38;;;;;;;11.50;6.00;;;17.40;98.00;;;;;;5033469;28;20458;-67
2023/06/10 00:35:06;;;;;;;11.37;5.57;;;17.50;98.00;;;;;;5051303;28;20453;-67
2023/06/10 00:37:34;;;;;;;12.47;6.03;;;17.50;98.00;;;;;;5051009;28;20830;-68
2023/06/10 00:40:02;;;;;;;10.47;5.93;;;17.50;98.00;;;;;;5050951;28;20831;-67
2023/06/10 00:42:37;;;;;;;10.20;5.43;;;17.50;98.00;;;;;;5051221;28;20446;-68
2023/06/10 00:45:06;;;;;;;13.13;6.10;;;17.60;98.00;;;;;;5051530;28;20456;-67
2023/06/10 00:47:35;;;;;;;12.40;5.53;;;17.50;98.00;;;;;;5050871;28;20462;-67
2023/06/10 00:50:05;;;;;;;10.30;5.20;;;17.40;98.00;;;;;;5050850;28;20497;-67
2023/06/10 00:52:32;;;;;;;9.90;5.63;;;17.50;98.00;;;;;;5051193;28;20460;-68
2023/06/10 00:55:01;;;;;;;11.03;5.40;;;17.30;98.00;;;;;;5051029;28;20944;-67
2023/06/10 00:57:29;;;;;;;12.00;5.47;;;17.10;98.00;;;;;;5051479;28;20469;-68
2023/06/10 00:59:57;;;;;;;8.47;5.10;;;17.10;98.00;;;;;;5051129;28;20456;-66
2023/06/10 01:02:24;;;;;;;9.00;4.80;;;17.10;98.00;;;;;;5033610;28;20460;-67
2023/06/10 01:04:52;;;;;;;9.17;5.10;;;17.00;98.00;;;;;;5050826;28;20454;-66
2023/06/10 01:07:25;;;;;;;8.10;4.67;;;16.90;98.00;;;;;;5054805;28;21086;-67
2023/06/10 01:09:58;;;;;;;8.80;5.20;;;17.10;98.00;;;;;;5054835;28;20492;-67
2023/06/10 01:12:33;;;;;;;10.80;5.27;;;17.10;98.00;;;;;;5054797;28;20978;-67
2023/06/10 01:15:02;;;;;;;11.10;5.63;;;17.10;98.00;;;;;;5054744;28;20560;-67
2023/06/10 01:17:30;;;;;;;9.70;5.50;;;17.10;98.00;;;;;;5054516;28;20507;-67
2023/06/10 01:19:57;;;;;;;10.80;5.97;;;17.10;98.00;;;;;;5054686;28;20514;-67
2023/06/10 01:22:28;;;;;;;10.90;5.83;;;17.10;98.00;;;;;;5054631;28;20476;-67
2023/06/10 01:24:58;;;;;;;11.47;6.03;;;17.00;98.00;;;;;;5054702;28;20454;-68
2023/06/10 01:27:30;;;;;;;20.20;5.77;;;17.00;98.00;;;;;;5037163;28;20488;-68
2023/06/10 01:30:04;;;;;;;9.40;5.30;;;17.00;98.00;;;;;;5054475;28;20964;-67
2023/06/10 01:32:38;;;;;;;12.37;5.90;;;17.00;98.00;;;;;;5054323;28;20974;-67
2023/06/10 01:35:07;;;;;;;9.50;5.00;;;16.90;98.00;;;;;;5054697;28;20845;-67
2023/06/10 01:37:39;;;;;;;9.43;5.40;;;16.90;98.00;;;;;;5054225;28;20454;-67
2023/06/10 01:40:08;;;;;;;9.90;5.20;;;16.90;98.00;;;;;;5054495;28;20457;-67
2023/06/10 01:42:35;;;;;;;8.60;4.80;;;16.70;98.00;;;;;;5054103;28;20449;-68
2023/06/10 01:45:02;;;;;;;8.17;4.73;;;16.80;98.00;;;;;;5054274;28;20599;-67
2023/06/10 01:47:29;;;;;;;7.93;4.50;;;16.70;98.00;;;;;;5054164;28;20453;-67
2023/06/10 01:49:59;;;;;;;9.13;4.67;;;16.70;98.00;;;;;;5054211;28;20485;-67
2023/06/10 01:52:27;;;;;;;8.57;5.00;;;16.70;98.00;;;;;;5053998;28;20453;-67
2023/06/10 01:54:56;;;;;;;9.17;4.70;;;16.70;98.00;;;;;;5054049;28;20495;-68
2023/06/10 01:57:23;;;;;;;9.23;4.83;;;16.70;98.00;;;;;;5053989;28;20507;-67
2023/06/10 01:59:50;;;;;;;7.83;4.63;;;16.70;98.00;;;;;;5053973;28;20539;-68
2023/06/10 02:02:17;;;;;;;11.33;4.80;;;16.60;98.00;;;;;;5053939;28;20507;-68
2023/06/10 02:04:44;;;;;;;9.67;4.20;;;16.60;98.00;;;;;;5053655;28;20453;-68
2023/06/10 02:07:12;;;;;;;8.13;4.80;;;16.50;98.00;;;;;;5053723;28;20465;-67
2023/06/10 02:09:40;;;;;;;8.70;4.53;;;16.60;98.00;;;;;;5053472;28;20628;-67
2023/06/10 02:12:10;;;;;;;7.30;4.20;;;16.70;98.00;;;;;;5036214;28;20453;-67
2023/06/10 02:14:37;;;;;;;7.63;4.00;;;16.60;98.00;;;;;;5053530;28;20462;-68
2023/06/10 02:17:04;;;;;;;8.23;4.70;;;16.60;98.00;;;;;;5052566;28;20844;-67
2023/06/10 02:19:31;;;;;;;9.07;5.13;;;16.60;98.00;;;;;;5053418;28;20461;-67
2023/06/10 02:21:58;;;;;;;9.07;4.87;;;16.60;98.00;;;;;;5053369;28;20454;-67
2023/06/10 02:24:25;;;;;;;9.63;5.20;;;16.50;98.00;;;;;;5053339;28;20951;-67
2023/06/10 02:26:52;;;;;;;9.20;5.03;;;16.40;98.00;;;;;;5035269;28;20454;-67
2023/06/10 02:29:25;;;;;;;10.27;4.60;;;16.40;98.00;;;;;;5053348;28;20480;-67
2023/06/10 02:31:52;;;;;;;10.53;5.40;;;16.50;98.00;;;;;;5053401;28;20507;-67
2023/06/10 02:34:19;;;;;;;11.13;5.10;;;16.40;98.00;;;;;;5053212;28;21057;-67
2023/06/10 02:36:48;;;;;;;9.33;4.60;;;16.30;98.00;;;;;;5052958;28;20495;-66
2023/06/10 02:39:16;;;;;;;10.67;5.00;;;16.30;98.00;;;;;;5053318;28;20538;-67
2023/06/10 02:41:43;;;;;;;8.50;5.13;;;16.30;98.00;;;;;;5053141;28;20827;-67
2023/06/10 02:44:10;;;;;;;7.87;4.70;;;16.20;98.00;;;;;;5053408;28;20963;-67
2023/06/10 02:46:39;;;;;;;7.10;4.30;;;16.10;98.00;;;;;;5035322;28;20446;-68
2023/06/10 02:49:06;;;;;;;8.90;5.30;;;16.00;98.00;;;;;;5035241;28;20649;-67
2023/06/10 02:51:33;;;;;;;7.90;4.53;;;16.10;98.00;;;;;;5053035;28;20454;-67
2023/06/10 02:54:00;;;;;;;7.37;4.10;;;16.00;98.00;;;;;;5052930;28;20497;-68
2023/06/10 02:56:28;;;;;;;6.97;4.27;;;15.90;98.00;;;;;;5031542;28;20459;-68
2023/06/10 02:58:55;;;;;;;6.80;3.97;;;15.90;98.00;;;;;;5033059;28;20461;-68
2023/06/10 03:01:22;;;;;;;7.90;4.17;;;15.90;98.00;;;;;;5032770;28;20838;-67
2023/06/10 03:03:51;;;;;;;9.67;4.80;;;15.70;98.00;;;;;;5032881;28;20447;-67
2023/06/10 03:06:18;;;;;;;9.73;4.70;;;15.80;98.00;;;;;;5032798;28;20458;-68
2023/06/10 03:08:45;;;;;;;7.47;4.10;;;15.90;98.00;;;;;;5033189;28;20473;-67
2023/06/10 03:11:12;;;;;;;8.10;4.30;;;15.90;98.00;;;;;;5033416;28;20521;-67
2023/06/10 03:13:40;;;;;;;10.10;4.70;;;16.00;98.00;;;;;;5033437;28;20455;-68
2023/06/10 03:18:35;;;;;;;8.40;4.50;;;15.90;98.00;;;;;;5050973;28;20497;-68
2023/06/10 03:21:04;;;;;;;8.07;4.23;;;16.00;98.00;;;;;;5052259;28;20462;-68
2023/06/10 03:23:31;;;;;;;6.60;3.90;;;15.90;98.00;;;;;;5052465;28;20461;-68
2023/06/10 03:25:58;;;;;;;8.50;4.70;;;15.80;98.00;;;;;;5052481;28;20462;-68
2023/06/10 03:28:27;;;;;;;7.57;4.10;;;15.80;98.00;;;;;;5051915;28;20458;-68
2023/06/10 03:30:54;;;;;;;7.60;4.10;;;15.70;98.00;;;;;;5051666;28;20486;-68
2023/06/10 03:33:22;;;;;;;7.57;4.20;;;15.80;98.00;;;;;;5052718;28;20454;-68
2023/06/10 03:35:49;;;;;;;10.77;4.00;;;15.80;98.00;;;;;;5052376;28;20488;-68
2023/06/10 03:38:17;;;;;;;6.20;3.93;;;15.70;98.00;;;;;;5052404;28;20457;-68
2023/06/10 03:40:44;;;;;;;8.80;4.23;;;15.80;98.00;;;;;;5034408;28;20469;-68
2023/06/10 03:43:11;;;;;;;7.47;3.87;;;15.90;98.00;;;;;;5034950;28;20457;-68
2023/06/10 03:45:38;;;;;;;8.63;4.27;;;15.90;98.00;;;;;;5052082;28;20591;-68
2023/06/10 03:48:07;;;;;;;7.30;3.60;;;15.90;98.00;;;;;;5052202;28;20446;-68
2023/06/10 03:50:35;;;;;;;7.93;4.00;;;15.80;98.00;;;;;;5051595;28;21004;-68
2023/06/10 03:53:02;;;;;;;6.77;3.60;;;15.80;98.00;;;;;;5051826;28;20462;-68
2023/06/10 03:55:31;;;;;;;7.90;4.20;;;15.90;98.00;;;;;;5051883;28;20458;-68
2023/06/10 03:57:58;;;;;;;8.87;4.47;;;15.80;98.00;;;;;;5051654;28;20540;-68
2023/06/10 04:00:25;;;;;;;6.87;4.00;;;15.80;98.00;;;;;;5051676;28;20523;-68
2023/06/10 04:02:52;;;;;;;8.07;4.37;;;15.80;98.00;;;;;;5051678;28;20469;-68
2023/06/10 04:05:22;;;;;;;8.93;3.90;;;15.80;98.00;;;;;;5033919;28;20450;-68
2023/06/10 04:07:49;;;;;;;7.77;4.13;;;15.80;98.00;;;;;;5051564;28;20544;-68
2023/06/10 04:10:16;;;;;;;8.40;4.67;;;15.90;98.00;;;;;;5051276;28;20576;-68
2023/06/10 04:12:45;;;;;;;11.87;5.10;;;15.90;98.00;;;;;;5051487;28;20461;-68
2023/06/10 04:15:13;;;;;;;8.20;4.50;;;15.80;98.00;;;;;;5051595;28;20458;-68
2023/06/10 04:17:41;;;;;;;8.50;4.37;;;15.90;98.00;;;;;;5033904;28;20535;-68
2023/06/10 04:20:09;;;;;;;7.60;4.47;;;15.90;98.00;;;;;;5051330;28;20454;-68
2023/06/10 04:22:38;;;;;;;8.07;4.57;;;16.00;98.00;;;;;;5051506;28;20991;-68
2023/06/10 04:25:07;;;;;;;7.63;4.20;;;16.00;98.00;;;;;;5051617;28;20520;-68
2023/06/10 04:27:34;;;;;;;9.87;5.27;;;16.10;98.00;;;;;;5051457;28;20453;-68
2023/06/10 04:30:04;;;;;;;9.53;4.93;;;15.90;98.00;;;;;;5051369;28;20500;-68
2023/06/10 04:32:31;;;;;;;8.33;4.30;;;16.10;98.00;;;;;;5051223;28;20511;-68
2023/06/10 04:34:58;;;;;;;7.83;4.20;;;16.10;98.00;;;;;;5051376;28;20487;-68
2023/06/10 04:37:25;;;;;;;8.50;4.53;;;16.20;98.00;;;;;;5051039;28;20469;-68
2023/06/10 04:39:53;;;;;;;10.10;5.00;;;16.30;98.00;;;;;;5050863;28;20453;-68
2023/06/10 04:42:20;;;;;;;8.03;4.47;;;16.50;98.00;;;;;;5050990;28;20457;-68
2023/06/10 04:44:50;;;;;;;9.00;4.63;;;16.60;98.00;;;;;;5051099;28;20457;-68
2023/06/10 04:47:18;;;;;;;8.03;4.60;;;16.60;98.00;;;;;;5051233;28;20863;-68
2023/06/10 04:49:45;;;;;;;8.90;4.43;;;16.70;98.00;;;;;;5050821;28;20485;-68
2023/06/10 04:52:13;;;;;;;9.00;4.40;;;16.70;98.00;;;;;;5051004;28;20461;-68
2023/06/10 04:54:40;;;;;;;9.53;4.63;;;16.70;98.00;;;;;;5050794;28;20461;-68
2023/06/10 04:57:11;;;;;;;8.17;3.90;;;16.60;98.00;;;;;;5050818;28;20446;-68
2023/06/10 04:59:38;;;;;;;9.00;4.93;;;16.70;98.00;;;;;;5050841;28;20875;-68
2023/06/10 05:02:06;;;;;;;8.63;4.33;;;16.70;98.00;;;;;;5050759;28;20997;-68
2023/06/10 05:04:34;;;;;;;8.57;4.70;;;16.80;98.00;;;;;;5050922;28;20465;-68
2023/06/10 05:07:01;;;;;;;8.43;4.70;;;16.80;98.00;;;;;;5051027;28;20457;-68
2023/06/10 05:09:28;;;;;;;6.67;4.20;;;16.90;98.00;;;;;;5050873;28;20464;-68
2023/06/10 05:11:55;;;;;;;8.10;4.47;;;17.00;98.00;;;;;;5033370;28;20453;-68
2023/06/10 05:14:23;;;;;;;8.70;4.87;;;17.00;98.00;;;;;;5050947;28;20875;-68
2023/06/10 05:16:50;;;;;;;7.63;4.27;;;17.10;98.00;;;;;;5050832;28;20524;-68
2023/06/10 05:19:17;;;;;;;9.67;4.80;;;17.20;98.00;;;;;;5050907;28;20968;-68
2023/06/10 05:21:46;;;;;;;7.53;4.27;;;17.30;98.00;;;;;;5033529;28;20816;-68
2023/06/10 05:24:13;;;;;;;9.67;5.07;;;17.40;98.00;;;;;;5051239;28;20450;-68
2023/06/10 05:26:41;;;;;;;7.80;4.27;;;17.50;98.00;;;;;;5050688;28;20453;-68
2023/06/10 05:29:09;;;;;;;8.07;4.47;;;17.70;98.00;;;;;;5050720;28;20454;-68
2023/06/10 05:31:36;;;;;;;7.30;4.27;;;17.80;98.00;;;;;;5050469;28;20577;-68
2023/06/10 05:34:03;;;;;;;8.37;4.73;;;17.80;98.00;;;;;;5050509;28;20462;-68
2023/06/10 05:36:30;;;;;;;8.10;4.83;;;17.90;98.00;;;;;;5050463;28;20454;-68
2023/06/10 05:38:58;;;;;;;8.33;4.47;;;18.10;98.00;;;;;;5050534;28;20461;-68
2023/06/10 05:41:25;;;;;;;7.60;4.20;;;18.20;98.00;;;;;;5050594;28;20456;-68
2023/06/10 05:43:52;;;;;;;8.37;4.83;;;18.30;98.00;;;;;;5050694;28;20461;-68
2023/06/10 05:46:20;;;;;;;8.33;4.00;;;18.50;98.00;;;;;;5050627;28;20460;-68
2023/06/10 05:48:47;;;;;;;10.40;5.03;;;18.60;98.00;;;;;;5050416;28;20454;-69
2023/06/10 05:51:14;;;;;;;8.70;4.80;;;18.70;98.00;;;;;;5050218;28;20488;-68
2023/06/10 05:53:42;;;;;;;6.40;3.83;;;18.90;98.00;;;;;;5053026;28;20825;-68
2023/06/10 05:56:10;;;;;;;8.13;4.40;;;19.00;98.00;;;;;;5054215;28;20510;-69
2023/06/10 05:58:38;;;;;;;9.20;4.60;;;19.10;98.00;;;;;;5054023;28;20460;-68
2023/06/10 06:01:05;;;;;;;8.47;4.30;;;19.00;98.00;;;;;;5054025;28;20457;-69
2023/06/10 06:03:33;;;;;;;6.90;4.27;;;19.20;98.00;;;;;;5053961;28;20456;-68
2023/06/10 06:06:01;;;;;;;9.80;4.60;;;19.20;98.00;;;;;;5052513;28;20460;-69
2023/06/10 06:08:28;;;;;;;8.07;4.97;;;19.40;98.00;;;;;;5054206;28;20458;-69
2023/06/10 06:10:55;;;;;;;9.77;4.90;;;19.50;98.00;;;;;;5053761;28;20559;-69
2023/06/10 06:13:23;;;;;;;8.00;4.47;;;19.50;98.00;;;;;;5054190;28;20465;-69
2023/06/10 06:15:50;;;;;;;7.97;4.53;;;19.70;98.00;;;;;;5053864;28;20461;-66
2023/06/10 06:18:18;;;;;;;6.80;4.00;;;19.80;98.00;;;;;;5036214;28;20985;-66
2023/06/10 06:20:45;;;;;;;6.97;3.80;;;19.80;98.00;;;;;;5053793;28;20481;-65
2023/06/10 06:23:13;;;;;;;7.90;3.90;;;19.90;98.00;;;;;;5053509;28;20454;-66
2023/06/10 06:25:40;;;;;;;6.00;4.00;;;20.00;98.00;;;;;;5053559;28;20446;-67
2023/06/10 06:28:08;;;;;;;5.80;3.67;;;20.10;98.00;;;;;;5053426;28;20473;-66
2023/06/10 06:30:37;;;;;;;6.87;3.60;;;20.30;98.00;;;;;;5053269;28;20517;-66
2023/06/10 06:33:04;;;;;;;6.33;3.50;;;20.40;98.00;;;;;;5053381;28;20519;-68
2023/06/10 06:35:32;;;;;;;5.07;3.50;;;20.60;98.00;;;;;;5053220;28;20457;-66
2023/06/10 06:38:03;;;;;;;6.50;3.33;;;20.60;98.00;;;;;;5053226;28;20508;-66
2023/06/10 06:40:31;;;;;;;6.97;3.63;;;20.70;98.00;;;;;;5053126;28;20462;-67
2023/06/10 06:43:00;;;;;;;5.50;3.67;;;20.70;98.00;;;;;;5053167;28;20458;-66
2023/06/10 06:45:27;;;;;;;7.10;3.97;;;20.70;98.00;;;;;;5019617;28;20466;-67
2023/06/10 06:47:55;;;;;;;6.10;3.63;;;20.80;98.00;;;;;;5053143;28;20955;-68
2023/06/10 06:50:23;;;;;;;9.20;4.10;;;20.90;98.00;;;;;;5052838;28;20577;-66
2023/06/10 06:52:50;;;;;;;6.63;3.60;;;21.10;98.00;;;;;;5035481;28;20523;-66
2023/06/10 06:55:17;;;;;;;5.67;3.60;;;21.30;98.00;;;;;;5052996;28;20473;-66
2023/06/10 06:57:44;;;;;;;5.40;3.70;;;21.50;98.00;;;;;;5052913;28;20453;-68
2023/06/10 07:00:12;;;;;;;5.63;3.90;;;21.60;98.00;;;;;;5035158;28;20509;-66
2023/06/10 07:02:40;;;;;;;6.50;3.90;;;21.70;98.00;;;;;;5052852;28;20458;-66
2023/06/10 07:05:10;;;;;;;5.37;3.37;;;21.70;98.00;;;;;;5052727;28;20458;-66
2023/06/10 07:07:37;;;;;;;6.50;3.70;;;21.70;98.00;;;;;;5052729;28;20461;-65
2023/06/10 07:10:05;;;;;;;6.80;4.30;;;21.80;98.00;;;;;;5052684;28;20939;-67
2023/06/10 07:12:32;;;;;;;7.20;4.20;;;21.80;98.00;;;;;;5053172;28;20733;-66
2023/06/10 07:14:59;;;;;;;7.90;4.27;;;21.80;98.00;;;;;;5052571;28;20454;-66
2023/06/10 07:17:26;;;;;;;6.00;3.57;;;21.90;98.00;;;;;;5052407;28;20458;-67
2023/06/10 07:19:57;;;;;;;7.77;3.90;;;21.90;98.00;;;;;;5034801;28;20486;-66
2023/06/10 07:22:26;;;;;;;6.37;4.10;;;22.10;98.00;;;;;;5052340;28;20572;-66
2023/06/10 07:24:54;;;;;;;8.40;4.23;;;22.30;98.00;;;;;;5052301;28;20453;-66
2023/06/10 07:27:21;;;;;;;6.57;3.73;;;22.50;98.00;;;;;;5034649;28;20454;-66
2023/06/10 07:29:48;;;;;;;5.00;3.30;;;22.50;98.00;;;;;;5052375;28;20853;-67
2023/06/10 07:32:15;;;;;;;5.83;3.77;;;22.50;98.00;;;;;;5052187;28;20501;-67
2023/06/10 07:34:44;;;;;;;8.00;3.87;;;22.60;98.00;;;;;;5052370;28;20458;-66
2023/06/10 07:37:11;;;;;;;4.80;3.70;;;22.70;98.00;;;;;;5032584;28;20466;-66
2023/06/10 07:39:43;;;;;;;6.97;4.10;;;22.90;98.00;;;;;;5033848;28;20874;-66
2023/06/10 07:42:10;;;;;;;6.90;4.03;;;23.00;98.00;;;;;;5051861;28;20932;-66
2023/06/10 07:44:41;;;;;;;7.33;4.37;;;23.10;98.00;;;;;;5052286;28;20498;-67
2023/06/10 07:47:08;;;;;;;6.53;4.27;;;23.20;98.00;;;;;;5052307;28;20465;-66
2023/06/10 07:52:09;;;;;;;6.80;4.10;;;23.40;98.00;;;;;;5069513;28;20492;-66
2023/06/10 07:54:36;;;;;;;4.70;3.40;;;23.50;98.00;;;;;;5070308;28;20457;-67
2023/06/10 07:57:06;;;;;;;9.30;3.83;;;23.50;98.00;;;;;;5069977;28;20460;-66
2023/06/10 07:59:33;;;;;;;7.27;3.97;;;23.60;98.00;;;;;;5071285;28;20448;-66
2023/06/10 08:02:00;;;;;;;11.70;4.50;;;23.70;98.00;;;;;;5070791;28;20506;-68
2023/06/10 08:04:27;;;;;;;8.03;4.00;;;23.80;98.00;;;;;;5070790;28;20456;-66
2023/06/10 08:06:54;;;;;;;6.73;4.10;;;24.00;98.00;;;;;;5071796;28;20530;-66
2023/06/10 08:09:23;;;;;;;6.40;3.80;;;24.00;98.00;;;;;;5053988;28;20453;-66
2023/06/10 08:11:50;;;;;;;8.53;4.47;;;24.20;98.00;;;;;;5071449;28;20900;-66
2023/06/10 08:14:19;;;;;;;7.03;4.20;;;24.20;97.70;;;;;;5071595;28;20457;-65
2023/06/10 08:16:46;;;;;;;9.83;4.47;;;24.30;97.60;;;;;;5070844;28;20457;-66
2023/06/10 08:19:13;;;;;;;11.70;4.50;;;24.40;97.00;;;;;;5071050;28;20548;-66
2023/06/10 08:21:40;;;;;;;6.10;3.70;;;24.50;96.90;;;;;;5053383;28;20455;-66
2023/06/10 08:24:08;;;;;;;6.73;4.60;;;24.60;97.10;;;;;;5071283;28;20465;-66
2023/06/10 08:26:35;;;;;;;7.20;4.57;;;24.70;97.40;;;;;;5071437;28;20453;-65
2023/06/10 08:29:02;;;;;;;8.13;4.83;;;24.80;96.00;;;;;;5071399;28;20606;-66
2023/06/10 08:31:30;;;;;;;9.03;4.90;;;24.90;95.30;;;;;;5071046;28;20484;-66
2023/06/10 08:34:01;;;;;;;7.90;4.70;;;25.00;95.60;;;;;;5071370;28;20456;-66
2023/06/10 08:36:28;;;;;;;7.00;4.07;;;25.10;95.00;;;;;;5069662;28;20464;-67
2023/06/10 08:38:56;;;;;;;6.67;4.37;;;25.30;94.90;;;;;;5053499;28;20484;-66
2023/06/10 08:41:26;;;;;;;9.07;4.33;;;25.40;94.80;;;;;;5053255;28;20461;-67
2023/06/10 08:44:00;;;;;;;9.80;4.67;;;25.40;94.20;;;;;;5071346;28;20495;-66
2023/06/10 08:46:28;;;;;;;7.80;4.33;;;25.60;94.40;;;;;;5071405;28;20488;-67
2023/06/10 08:48:57;;;;;;;7.90;4.53;;;25.70;94.30;;;;;;5071334;28;20461;-66
2023/06/10 08:51:25;;;;;;;7.97;4.70;;;25.90;94.50;;;;;;5071004;28;20488;-66
2023/06/10 08:54:00;;;;;;;7.27;4.87;;;25.90;92.60;;;;;;5071044;28;20548;-66
2023/06/10 08:56:29;;;;;;;7.23;4.63;;;26.00;94.20;;;;;;5071270;28;20967;-66
2023/06/10 08:58:57;;;;;;;7.13;4.33;;;26.10;92.90;;;;;;5071196;28;20472;-67
2023/06/10 09:01:25;;;;;;;8.03;4.60;;;26.20;93.10;;;;;;5071053;28;20461;-65
2023/06/10 09:03:53;;;;;;;7.50;4.73;;;26.40;92.00;;;;;;5053468;28;20456;-67
2023/06/10 09:06:22;;;;;;;6.90;4.50;;;26.40;92.20;;;;;;5070910;28;20476;-66
2023/06/10 09:08:49;;;;;;;7.73;4.53;;;26.40;91.90;;;;;;5071017;28;20444;-66
2023/06/10 09:11:16;;;;;;;7.43;4.57;;;26.30;91.40;;;;;;5070805;28;20544;-66
2023/06/10 09:13:43;;;;;;;6.90;4.90;;;26.20;92.30;;;;;;5071458;28;20467;-66
2023/06/10 09:16:12;;;;;;;7.90;4.93;;;26.30;92.20;;;;;;5070974;28;20459;-66
2023/06/10 09:18:39;;;;;;;8.90;4.87;;;26.40;91.40;;;;;;5070792;28;20467;-66
2023/06/10 09:21:07;;;;;;;6.87;4.70;;;26.60;90.90;;;;;;5070597;28;20449;-66
2023/06/10 09:23:38;;;;;;;8.07;5.10;;;26.50;90.80;;;;;;5070939;28;20449;-67
2023/06/10 09:26:10;;;;;;;9.20;5.17;;;26.50;90.30;;;;;;5052850;28;21012;-65
2023/06/10 09:28:39;;;;;;;8.43;5.10;;;26.60;91.00;;;;;;5074536;28;20456;-66
2023/06/10 09:31:07;;;;;;;7.50;4.90;;;26.70;90.80;;;;;;5074382;28;20480;-66
2023/06/10 09:33:37;;;;;;;8.40;5.00;;;26.80;89.60;;;;;;5056511;28;20461;-67
2023/06/10 09:36:04;;;;;;;8.97;4.70;;;27.00;88.50;;;;;;5074504;28;20464;-68
2023/06/10 09:38:33;;;;;;;8.73;5.27;;;27.20;88.20;;;;;;5074200;28;20460;-67
2023/06/10 09:41:01;;;;;;;6.93;4.80;;;27.40;88.60;;;;;;5074425;28;20456;-66
2023/06/10 09:43:41;;;;;;;9.93;5.17;;;27.70;87.80;;;;;;5073952;28;20506;-66
2023/06/10 09:46:15;;;;;;;8.83;4.90;;;27.90;86.40;;;;;;5074358;28;20484;-66
2023/06/10 09:48:43;;;;;;;9.93;4.77;;;28.10;86.70;;;;;;5074480;28;20544;-66
2023/06/10 09:51:11;;;;;;;8.37;4.97;;;28.00;85.70;;;;;;5074039;28;20516;-66
2023/06/10 09:53:38;;;;;;;7.70;5.03;;;28.10;86.10;;;;;;5074365;28;20466;-67
2023/06/10 09:56:09;;;;;;;9.30;4.90;;;28.10;85.70;;;;;;5074191;28;20444;-66
2023/06/10 09:58:42;;;;;;;7.80;4.77;;;28.10;85.80;;;;;;5074082;28;20463;-66
2023/06/10 10:01:11;;;;;;;8.30;4.87;;;28.00;84.80;;;;;;5074130;28;20488;-67
2023/06/10 10:03:46;;;;;;;7.37;4.83;;;28.00;86.10;;;;;;5073918;28;20460;-68
2023/06/10 10:06:14;;;;;;;7.97;4.73;;;28.20;85.30;;;;;;5073845;28;20539;-66
2023/06/10 10:08:41;;;;;;;9.40;5.10;;;28.50;84.90;;;;;;5073760;28;20947;-66
2023/06/10 10:11:09;;;;;;;6.80;4.53;;;28.70;84.20;;;;;;5073669;28;20461;-66
2023/06/10 10:13:38;;;;;;;6.43;4.50;;;28.70;82.80;;;;;;5073632;28;20494;-67
2023/06/10 10:16:11;;;;;;;6.20;4.33;;;28.90;82.90;;;;;;5073739;28;20456;-68
2023/06/10 10:18:43;;;;;;;6.93;4.10;;;28.80;81.90;;;;;;5073576;28;20544;-66
2023/06/10 10:21:14;;;;;;;7.07;4.13;;;28.90;83.60;;;;;;5073630;28;20880;-66
2023/06/10 10:23:50;;;;;;;7.23;4.70;;;29.10;81.80;;;;;;5073421;28;20465;-66
2023/06/10 10:26:19;;;;;;;9.43;4.73;;;28.90;82.50;;;;;;5073179;28;20848;-66
2023/06/10 10:28:52;;;;;;;8.97;4.80;;;28.70;81.90;;;;;;5073761;28;20989;-67
2023/06/10 10:31:22;;;;;;;7.13;4.33;;;28.40;82.30;;;;;;5055515;28;20480;-66
2023/06/10 10:33:56;;;;;;;7.50;4.70;;;28.30;83.80;;;;;;5073230;28;20457;-66
2023/06/10 10:36:24;;;;;;;7.97;4.57;;;28.40;83.20;;;;;;5072998;28;20456;-66
2023/06/10 10:38:52;;;;;;;10.50;4.60;;;28.30;83.20;;;;;;5072733;28;20935;-66
2023/06/10 10:41:21;;;;;;;7.13;4.43;;;28.20;83.20;;;;;;5073357;28;20453;-66
2023/06/10 10:43:51;;;;;;;8.00;4.90;;;28.50;83.90;;;;;;5073332;28;20460;-66
2023/06/10 10:46:18;;;;;;;8.00;4.63;;;28.80;83.50;;;;;;5073163;28;20452;-67
2023/06/10 10:48:52;;;;;;;15.77;4.50;;;29.20;83.10;;;;;;5073235;28;20873;-68
2023/06/10 10:51:19;;;;;;;6.90;4.70;;;29.60;81.80;;;;;;5073299;28;20499;-66
2023/06/10 10:54:13;;;;;;;6.83;4.50;;;29.90;81.00;;;;;;5073368;28;20448;-66
2023/06/10 10:57:15;;;;;;;6.67;4.40;;;30.10;80.60;;;;;;5072932;28;20540;-66
2023/06/10 10:59:46;;;;;;;8.00;4.20;;;30.20;80.60;;;;;;5073152;28;20463;-67
2023/06/10 11:02:18;;;;;;;6.70;4.40;;;30.40;79.70;;;;;;5055397;28;20456;-66
2023/06/10 11:04:49;;;;;;;8.10;4.77;;;30.50;79.90;;;;;;5072865;28;20564;-66
2023/06/10 11:07:21;;;;;;;9.53;5.03;;;30.40;79.30;;;;;;5054971;28;20464;-67
2023/06/10 11:10:00;;;;;;;7.90;4.50;;;30.40;79.00;;;;;;5072760;28;20453;-66
2023/06/10 11:12:49;;;;;;;7.40;4.63;;;30.70;77.40;;;;;;5072389;28;20490;-67
2023/06/10 11:15:20;;;;;;;6.23;4.30;;;30.90;76.70;;;;;;5072501;28;20464;-67
2023/06/10 11:18:10;;;;;;;6.70;4.53;;;31.00;76.90;;;;;;5072641;28;20460;-66
2023/06/10 11:21:00;;;;;;;6.37;4.63;;;31.20;77.80;;;;;;5072354;28;21025;-66
2023/06/10 11:23:34;;;;;;;7.53;4.80;;;31.20;77.30;;;;;;5072449;28;20861;-67
2023/06/10 11:26:12;;;;;;;7.70;4.60;;;30.90;77.70;;;;;;5072241;28;20463;-66
2023/06/10 11:28:40;;;;;;;8.37;5.03;;;30.70;77.70;;;;;;5072249;28;20460;-66
2023/06/10 11:31:08;;;;;;;7.03;5.00;;;30.70;78.00;;;;;;5072175;28;20950;-67
2023/06/10 11:33:39;;;;;;;7.63;4.70;;;30.60;78.20;;;;;;5072107;28;20538;-66
2023/06/10 11:36:08;;;;;;;7.13;4.83;;;30.20;78.30;;;;;;5072192;28;20448;-66
2023/06/10 11:38:35;;;;;;;8.00;4.80;;;29.80;79.10;;;;;;5072322;28;20485;-66
2023/06/10 11:41:03;;;;;;;7.73;4.63;;;29.60;80.00;;;;;;5072916;28;20498;-68
2023/06/10 11:43:31;;;;;;;7.80;5.03;;;29.60;80.30;;;;;;5072952;28;20522;-68
2023/06/10 11:46:01;;;;;;;7.80;5.10;;;29.40;80.70;;;;;;5072904;28;20456;-67
2023/06/10 11:48:30;;;;;;;9.67;4.60;;;29.40;80.80;;;;;;5072869;28;20452;-67
2023/06/10 11:50:57;;;;;;;6.07;4.30;;;29.70;80.40;;;;;;5071359;28;20809;-67
2023/06/10 11:53:24;;;;;;;7.17;4.70;;;30.10;79.50;;;;;;5072703;28;20484;-67
2023/06/10 11:55:52;;;;;;;7.90;4.87;;;30.70;79.80;;;;;;5072603;28;20794;-67
2023/06/10 11:58:21;;;;;;;6.30;4.73;;;31.30;77.90;;;;;;5072531;28;20552;-67
2023/06/10 12:00:49;;;;;;;7.40;4.30;;;31.90;76.00;;;;;;5054528;28;20878;-67
2023/06/10 12:03:19;;;;;;;7.00;4.50;;;31.90;74.60;;;;;;5072265;28;20468;-68
2023/06/10 12:05:57;;;;;;;7.30;4.77;;;31.50;74.30;;;;;;5058011;28;20481;-67
2023/06/10 12:08:25;;;;;;;7.30;3.80;;;31.10;75.30;;;;;;5051985;28;20556;-67
2023/06/10 12:10:52;;;;;;;7.17;4.13;;;30.80;75.10;;;;;;5051895;28;20457;-67
2023/06/10 12:13:20;;;;;;;8.03;4.90;;;30.70;75.10;;;;;;5051187;28;20485;-67
2023/06/10 12:15:47;;;;;;;6.60;4.10;;;31.20;76.40;;;;;;5051605;28;20820;-67
2023/06/10 12:18:19;;;;;;;6.70;4.83;;;31.90;75.50;;;;;;5051400;28;20464;-67
2023/06/10 12:20:48;;;;;;;8.10;4.80;;;32.50;74.40;;;;;;5051640;28;20780;-67
2023/06/10 12:23:16;;;;;;;6.97;4.53;;;32.80;72.10;;;;;;5051409;28;20541;-67
2023/06/10 12:25:52;;;;;;;6.00;4.17;;;32.70;72.40;;;;;;5051355;28;20445;-67
2023/06/10 12:28:22;;;;;;;5.37;4.00;;;32.30;72.90;;;;;;5052204;28;20457;-68
2023/06/10 12:30:50;;;;;;;5.37;4.00;;;32.40;73.20;;;;;;5052054;28;21013;-68
2023/06/10 12:33:19;;;;;;;7.00;4.50;;;32.60;74.40;;;;;;5051892;28;20486;-68
2023/06/10 12:38:14;;;;;;;5.97;4.30;;;33.20;71.00;;;;;;5050448;28;20477;-69
2023/06/10 12:40:41;;;;;;;6.87;4.30;;;33.40;70.50;;;;;;5034266;28;20454;-66
2023/06/10 12:43:16;;;;;;;6.80;4.20;;;33.80;70.50;;;;;;5052119;28;20454;-66
2023/06/10 12:45:44;;;;;;;6.60;4.40;;;33.90;70.50;;;;;;5051116;28;20457;-66
2023/06/10 12:48:18;;;;;;;5.97;4.40;;;33.30;70.70;;;;;;5051157;28;20947;-66
2023/06/10 12:50:53;;;;;;;6.07;4.70;;;33.40;71.50;;;;;;5051303;28;20461;-66
2023/06/10 12:53:20;;;;;;;7.83;4.87;;;33.60;70.20;;;;;;5051003;28;20896;-66
2023/06/10 12:55:48;;;;;;;6.17;4.60;;;33.50;70.60;;;;;;5051030;28;20515;-66
2023/06/10 12:58:15;;;;;;;6.73;4.63;;;32.80;71.70;;;;;;5051428;28;20523;-66
2023/06/10 13:00:42;;;;;;;6.97;4.47;;;32.20;72.70;;;;;;5033453;28;20484;-66